Time;durP1;ratioP1;P1;durP2;ratioP2;P2;SDS_P1;SDS_P2;PMS_P1;PMS_P2;Temp;Humidity;BMP_temperature;BMP_pressure;BME280_temperature;BME280_humidity;BME280_pressure;Samples;Min_cycle;Max_cycle;Signal;HPM_P1;HPM_P2
2022/05/06 00:01:44;;;;;;;18.48;9.52;;;;;;;10.66;100.00;99167.28;5046964;28;20064;-69
2022/05/06 00:04:10;;;;;;;18.55;8.85;;;;;;;10.65;100.00;99176.09;5046886;28;20108;-69
2022/05/06 00:06:36;;;;;;;16.83;8.38;;;;;;;10.65;100.00;99168.19;5046951;28;20308;-69
2022/05/06 00:09:03;;;;;;;18.27;9.80;;;;;;;10.62;100.00;99170.88;5046917;28;20021;-69
2022/05/06 00:11:28;;;;;;;23.80;9.50;;;;;;;10.65;100.00;99170.81;5046951;28;20044;-69
2022/05/06 00:13:54;;;;;;;17.60;9.15;;;;;;;10.68;100.00;99176.06;5046796;28;20025;-69
2022/05/06 00:16:20;;;;;;;19.13;8.68;;;;;;;10.64;100.00;99169.94;5047009;28;20029;-69
2022/05/06 00:18:46;;;;;;;16.20;8.43;;;;;;;10.57;100.00;99167.44;5046772;28;20048;-69
2022/05/06 00:21:11;;;;;;;17.20;9.68;;;;;;;10.49;100.00;99174.50;5046713;28;20313;-69
2022/05/06 00:23:37;;;;;;;14.85;8.55;;;;;;;10.54;100.00;99168.31;5048851;28;20035;-69
2022/05/06 00:26:03;;;;;;;17.00;8.05;;;;;;;10.55;100.00;99163.94;5066515;28;20092;-69
2022/05/06 00:28:30;;;;;;;17.38;8.88;;;;;;;10.59;100.00;99166.50;5066506;28;20028;-69
2022/05/06 00:30:56;;;;;;;18.17;9.20;;;;;;;10.56;100.00;99166.53;5066506;28;20100;-69
2022/05/06 00:33:24;;;;;;;17.92;8.95;;;;;;;10.51;100.00;99164.84;5066415;28;20209;-69
2022/05/06 00:35:53;;;;;;;20.40;9.75;;;;;;;10.44;100.00;99155.28;5066375;28;20324;-69
2022/05/06 00:38:19;;;;;;;15.57;8.70;;;;;;;10.52;100.00;99163.97;5066186;28;20225;-69
2022/05/06 00:40:45;;;;;;;17.17;8.40;;;;;;;10.49;100.00;99161.34;5066255;28;20054;-69
2022/05/06 00:43:11;;;;;;;16.55;9.43;;;;;;;10.53;100.00;99160.44;5066510;28;20020;-69
2022/05/06 00:45:46;;;;;;;16.25;8.77;;;;;;;10.54;100.00;99163.03;5066166;28;20339;-69
2022/05/06 00:48:13;;;;;;;17.83;9.02;;;;;;;10.56;100.00;99163.03;5066096;28;20341;-69
2022/05/06 00:50:38;;;;;;;18.25;8.27;;;;;;;10.59;100.00;99157.72;5066100;28;20040;-69
2022/05/06 00:53:07;;;;;;;17.70;7.68;;;;;;;10.58;100.00;99153.38;5064798;28;20036;-69
2022/05/06 00:55:34;;;;;;;18.60;8.27;;;;;;;10.62;100.00;99152.44;5066268;28;20208;-69
2022/05/06 00:58:01;;;;;;;13.50;7.45;;;;;;;10.64;100.00;99153.31;5065955;28;20023;-69
2022/05/06 01:00:28;;;;;;;17.42;8.75;;;;;;;10.64;100.00;99153.31;5065940;28;20062;-69
2022/05/06 01:02:53;;;;;;;18.02;9.50;;;;;;;10.62;100.00;99152.44;5065852;28;20324;-69
2022/05/06 01:05:19;;;;;;;15.30;8.93;;;;;;;10.59;100.00;99149.84;5065782;28;20020;-69
2022/05/06 01:07:47;;;;;;;17.13;9.13;;;;;;;10.40;100.00;99148.28;5065810;28;20020;-69
2022/05/06 01:10:12;;;;;;;15.60;8.45;;;;;;;10.32;100.00;99140.47;5065739;28;20088;-69
2022/05/06 01:12:38;;;;;;;17.52;8.32;;;;;;;10.36;100.00;99143.97;5065638;28;20024;-69
2022/05/06 01:15:22;;;;;;;17.77;8.98;;;;;;;10.39;100.00;99143.94;5065714;28;20021;-69
2022/05/06 01:17:48;;;;;;;17.80;9.40;;;;;;;10.39;100.00;99141.28;5065522;28;20021;-69
2022/05/06 01:20:18;;;;;;;35.10;10.90;;;;;;;10.31;100.00;99148.38;5065542;28;20030;-69
2022/05/06 01:22:53;;;;;;;22.33;11.02;;;;;;;10.24;100.00;99151.97;5065498;28;20053;-69
2022/05/06 01:25:20;;;;;;;23.20;11.60;;;;;;;10.28;100.00;99156.31;5065147;28;20324;-69
2022/05/06 01:28:06;;;;;;;20.42;9.48;;;;;;;10.43;100.00;99153.53;5065409;28;20020;-69
2022/05/06 01:30:39;;;;;;;30.00;12.70;;;;;;;10.43;100.00;99153.53;5065181;28;20032;-69
2022/05/06 01:33:09;;;;;;;21.92;11.05;;;;;;;10.39;100.00;99146.56;5065298;28;20028;-69
2022/05/06 01:35:57;;;;;;;19.75;10.20;;;;;;;10.40;100.00;99148.28;5063641;28;20029;-69
2022/05/06 01:38:33;;;;;;;16.95;9.15;;;;;;;10.52;100.00;99138.53;5064888;28;20043;-69
2022/05/06 01:41:10;;;;;;;22.05;9.73;;;;;;;10.57;100.00;99141.09;5065155;28;20031;-69
2022/05/06 01:43:39;;;;;;;17.00;9.73;;;;;;;10.59;100.00;99149.84;5065122;28;20024;-69
2022/05/06 01:46:06;;;;;;;19.58;11.63;;;;;;;10.58;100.00;99150.72;5065002;28;20025;-69
2022/05/06 01:48:33;;;;;;;19.10;10.10;;;;;;;10.56;100.00;99149.88;5064946;28;20032;-69
2022/05/06 01:51:01;;;;;;;19.15;10.57;;;;;;;10.54;100.00;99141.13;5064909;28;20031;-69
2022/05/06 01:53:26;;;;;;;23.13;11.60;;;;;;;10.58;100.00;99142.84;5055981;28;20026;-69
2022/05/06 01:55:52;;;;;;;19.58;10.43;;;;;;;10.56;100.00;99139.34;5044893;28;20021;-69
2022/05/06 01:58:17;;;;;;;18.60;10.05;;;;;;;10.48;100.00;99136.78;5044787;28;20064;-69
2022/05/06 02:00:42;;;;;;;19.67;10.05;;;;;;;10.58;100.00;99130.56;5044797;28;20356;-69
2022/05/06 02:05:16;;;;;;;19.13;10.07;;;;;;;10.54;100.00;99135.88;5043997;28;20048;-69
2022/05/06 02:05:53;;;;;;;28.77;12.85;;;;;;;10.48;100.00;99130.66;5044678;28;20029;-69
2022/05/06 02:08:19;;;;;;;23.80;12.75;;;;;;;10.47;100.00;99123.66;5044670;28;20029;-69
2022/05/06 02:10:44;;;;;;;22.38;10.95;;;;;;;10.42;100.00;99125.47;5044662;28;20044;-69
2022/05/06 02:13:09;;;;;;;31.60;13.82;;;;;;;10.39;100.00;99120.25;5044646;28;20093;-69
2022/05/06 02:15:35;;;;;;;20.77;11.15;;;;;;;10.39;100.00;99121.13;5043388;28;20028;-69
2022/05/06 02:18:00;;;;;;;25.98;12.23;;;;;;;10.39;100.00;99125.50;5044386;28;20021;-69
2022/05/06 02:20:26;;;;;;;19.35;10.43;;;;;;;10.42;100.00;99125.47;5044525;28;20025;-69
2022/05/06 02:22:51;;;;;;;21.52;10.30;;;;;;;10.36;100.00;99130.81;5047194;28;20324;-69
2022/05/06 02:25:17;;;;;;;22.13;11.18;;;;;;;10.37;100.00;99125.53;5064367;28;20375;-69
2022/05/06 02:27:42;;;;;;;23.10;12.40;;;;;;;10.44;100.00;99132.44;5064289;28;20088;-69
2022/05/06 02:35:37;;;;;;;25.65;12.07;;;;;;;10.31;100.00;99129.97;5064176;28;20382;-69
2022/05/06 02:38:04;;;;;;;34.72;12.07;;;;;;;10.28;100.00;99128.25;5063956;28;20075;-69
2022/05/06 02:40:29;;;;;;;27.08;12.82;;;;;;;10.27;100.00;99130.88;5064168;28;20029;-69
2022/05/06 02:42:55;;;;;;;19.15;11.27;;;;;;;10.21;100.00;99125.69;5055946;28;20032;-69
2022/05/06 02:45:20;;;;;;;22.58;12.35;;;;;;;10.23;100.00;99129.19;5044382;28;20308;-69
2022/05/06 02:47:46;;;;;;;22.55;11.23;;;;;;;10.16;100.00;99138.03;5044197;28;20209;-69
2022/05/06 02:50:11;;;;;;;29.55;12.02;;;;;;;10.12;100.00;99138.94;5044235;28;20021;-69
2022/05/06 02:52:37;;;;;;;24.45;12.50;;;;;;;10.12;100.00;99131.03;5044048;28;20045;-69
2022/05/06 02:55:03;;;;;;;23.90;11.98;;;;;;;10.09;100.00;99133.69;5043986;28;20092;-69
2022/05/06 02:57:28;;;;;;;27.10;11.70;;;;;;;10.05;100.00;99129.31;5044102;28;20105;-69
2022/05/06 02:59:54;;;;;;;22.60;11.73;;;;;;;10.06;100.00;99131.09;5044005;28;20317;-69
2022/05/06 03:02:19;;;;;;;20.77;10.68;;;;;;;10.07;100.00;99132.84;5054435;28;20096;-69
2022/05/06 03:04:45;;;;;;;22.38;11.02;;;;;;;10.04;100.00;99138.09;5063414;28;20037;-69
2022/05/06 03:07:10;;;;;;;23.55;11.02;;;;;;;10.05;100.00;99134.56;5063795;28;20189;-69
2022/05/06 03:09:38;;;;;;;25.45;12.25;;;;;;;10.05;100.00;99137.22;5063831;28;20083;-69
2022/05/06 03:12:04;;;;;;;23.67;10.68;;;;;;;10.09;100.00;99131.06;5055274;28;20037;-69
2022/05/06 03:14:29;;;;;;;21.60;11.00;;;;;;;10.12;100.00;99136.28;5043856;28;20048;-69
2022/05/06 03:16:55;;;;;;;16.85;9.60;;;;;;;10.10;100.00;99138.09;5046769;28;20026;-69
2022/05/06 03:19:20;;;;;;;16.40;9.18;;;;;;;10.12;100.00;99133.66;5047848;28;20021;-69
2022/05/06 03:21:53;;;;;;;21.10;10.95;;;;;;;10.11;100.00;99131.94;5047829;28;20021;-69
2022/05/06 03:24:18;;;;;;;20.45;10.27;;;;;;;10.03;100.00;99131.97;5047759;28;20025;-69
2022/05/06 03:26:45;;;;;;;20.02;10.43;;;;;;;10.02;100.00;99129.34;5047731;28;20128;-69
2022/05/06 03:29:11;;;;;;;26.27;11.57;;;;;;;10.08;100.00;99139.84;5047720;28;20071;-69
2022/05/06 03:31:36;;;;;;;24.45;11.52;;;;;;;10.06;100.00;99136.34;5047650;28;20028;-69
2022/05/06 03:34:03;;;;;;;15.68;9.43;;;;;;;10.06;100.00;99138.97;5067045;28;20312;-69
2022/05/06 03:36:29;;;;;;;18.35;9.15;;;;;;;9.98;100.00;99130.28;5067430;28;20091;-69
2022/05/06 03:38:55;;;;;;;19.27;9.65;;;;;;;10.00;100.00;99136.41;5067442;28;20316;-69
2022/05/06 03:41:21;;;;;;;19.52;10.30;;;;;;;9.98;100.00;99132.91;5067673;28;20205;-69
2022/05/06 03:43:47;;;;;;;15.38;8.85;;;;;;;9.98;100.00;99127.63;5067346;28;20016;-69
2022/05/06 03:46:12;;;;;;;20.30;9.70;;;;;;;9.98;100.00;99132.91;5067307;28;20020;-69
2022/05/06 03:48:38;;;;;;;25.13;10.48;;;;;;;9.88;100.00;99131.25;5067311;28;20032;-69
2022/05/06 03:51:23;;;;;;;24.33;10.95;;;;;;;9.85;100.00;99133.91;5066410;28;20088;-69
2022/05/06 03:53:49;;;;;;;21.20;10.70;;;;;;;9.86;100.00;99130.38;5052349;28;20021;-69
2022/05/06 03:56:15;;;;;;;19.92;10.90;;;;;;;9.85;100.00;99136.53;5067141;28;20088;-69
2022/05/06 03:58:40;;;;;;;27.38;11.32;;;;;;;9.81;100.00;99145.34;5067010;28;20389;-69
2022/05/06 04:01:09;;;;;;;21.48;11.65;;;;;;;9.74;100.00;99144.50;5067124;28;20320;-69
2022/05/06 04:03:36;;;;;;;21.60;10.93;;;;;;;9.79;100.00;99141.84;5066835;28;20263;-69
2022/05/06 04:06:01;;;;;;;22.65;10.30;;;;;;;9.74;100.00;99147.13;5066699;28;20028;-69
2022/05/06 04:08:27;;;;;;;27.02;10.52;;;;;;;9.74;100.00;99156.75;5066926;28;20084;-69
2022/05/06 04:10:53;;;;;;;18.70;9.48;;;;;;;9.70;100.00;99152.41;5066858;28;20096;-69
2022/05/06 04:13:19;;;;;;;14.63;8.52;;;;;;;9.69;100.00;99158.56;5067104;28;20029;-69
2022/05/06 04:15:48;;;;;;;22.77;10.43;;;;;;;9.68;100.00;99156.81;5066833;28;20084;-69
2022/05/06 04:18:14;;;;;;;22.35;12.02;;;;;;;9.67;100.00;99160.31;5064923;28;20025;-69
2022/05/06 04:23:30;;;;;;;22.20;10.38;;;;;;;9.65;100.00;99159.47;5065744;28;20066;-69
2022/05/06 04:26:03;;;;;;;18.98;10.93;;;;;;;9.60;100.00;99161.25;5061783;28;20032;-69
2022/05/06 04:28:30;;;;;;;22.73;11.23;;;;;;;9.57;100.00;99156.03;5045537;28;20048;-69
2022/05/06 04:30:56;;;;;;;23.42;10.75;;;;;;;9.59;100.00;99170.03;5045172;28;20021;-69
2022/05/06 04:33:25;;;;;;;20.10;10.38;;;;;;;9.48;100.00;99161.34;5045556;28;20348;-69
2022/05/06 04:35:51;;;;;;;20.27;9.15;;;;;;;9.45;100.00;99164.84;5047241;28;20026;-69
2022/05/06 04:38:16;;;;;;;24.58;12.15;;;;;;;9.44;100.00;99167.50;5062740;28;20040;-69
2022/05/06 04:40:42;;;;;;;33.10;11.60;;;;;;;9.41;100.00;99164.88;5066475;28;20017;-69
2022/05/06 04:43:08;;;;;;;29.15;11.70;;;;;;;9.43;100.00;99174.50;5066247;28;20027;-69
2022/05/06 04:45:38;;;;;;;20.52;10.95;;;;;;;9.50;100.00;99170.97;5066261;28;20088;-69
2022/05/06 04:48:05;;;;;;;23.85;11.75;;;;;;;9.59;100.00;99177.91;5066243;28;20021;-69
2022/05/06 04:50:31;;;;;;;28.40;12.25;;;;;;;9.55;100.00;99179.69;5066198;28;20220;-69
2022/05/06 04:52:57;;;;;;;21.15;11.13;;;;;;;9.53;100.00;99176.22;5066222;28;20021;-69
2022/05/06 04:55:23;;;;;;;27.83;11.35;;;;;;;9.50;100.00;99180.59;5066005;28;20058;-69
2022/05/06 04:57:48;;;;;;;17.10;9.07;;;;;;;9.56;100.00;99180.56;5065897;28;20021;-69
2022/05/06 05:00:14;;;;;;;20.23;10.20;;;;;;;9.78;100.00;99190.03;5065967;28;20047;-69
2022/05/06 05:02:39;;;;;;;31.27;10.27;;;;;;;9.92;100.00;99190.78;5065733;28;20144;-69
2022/05/06 05:05:05;;;;;;;18.08;9.52;;;;;;;10.02;100.00;99188.09;5065910;28;20194;-69
2022/05/06 05:07:30;;;;;;;20.48;10.32;;;;;;;10.40;100.00;99190.41;5065842;28;20024;-69
2022/05/06 05:09:56;;;;;;;26.20;10.55;;;;;;;10.80;100.00;99184.69;5065793;28;20224;-69
2022/05/06 05:12:24;;;;;;;37.75;11.57;;;;;;;10.86;100.00;99191.66;5065684;28;20024;-69
2022/05/06 05:14:50;;;;;;;37.45;10.25;;;;;;;11.16;99.74;99191.28;5065910;28;20096;-69
2022/05/06 05:17:15;;;;;;;32.30;10.50;;;;;;;11.22;97.55;99196.47;5065822;28;20020;-69
2022/05/06 05:19:40;;;;;;;37.33;11.10;;;;;;;11.21;97.45;99194.72;5065821;28;20331;-69
2022/05/06 05:22:06;;;;;;;19.05;9.35;;;;;;;11.48;96.38;99198.78;5065512;28;20096;-69
2022/05/06 05:24:32;;;;;;;43.53;9.57;;;;;;;11.78;93.90;99193.94;5065514;28;20332;-69
2022/05/06 05:26:58;;;;;;;18.67;7.03;;;;;;;12.41;92.64;99203.41;5065421;28;20028;-69
2022/05/06 05:29:24;;;;;;;18.20;8.65;;;;;;;12.62;90.89;99192.47;5065644;28;20020;-69
2022/05/06 05:31:50;;;;;;;17.58;8.25;;;;;;;13.27;88.90;99198.25;5065378;28;20020;-69
2022/05/06 05:34:16;;;;;;;17.20;8.32;;;;;;;13.62;87.09;99195.72;5064151;28;20021;-69
2022/05/06 05:36:41;;;;;;;22.05;10.23;;;;;;;13.53;86.25;99193.28;5064507;28;20024;-70
2022/05/06 05:39:07;;;;;;;16.00;8.02;;;;;;;14.18;85.26;99197.91;5064257;28;20090;-70
2022/05/06 05:41:33;;;;;;;14.70;8.50;;;;;;;14.00;83.89;99193.94;5065250;28;20088;-70
2022/05/06 05:49:27;;;;;;;17.92;7.95;;;;;;;14.71;82.93;99205.34;5065101;28;20032;-70
2022/05/06 05:51:52;;;;;;;17.05;8.98;;;;;;;14.60;83.14;99202.13;5065101;28;20025;-70
2022/05/06 05:54:17;;;;;;;16.77;8.90;;;;;;;14.74;81.76;99203.50;5065035;28;20025;-70
2022/05/06 05:56:43;;;;;;;14.55;7.38;;;;;;;15.76;80.70;99207.59;5065017;28;20302;-70
2022/05/06 05:59:08;;;;;;;17.40;9.32;;;;;;;16.22;77.90;99207.88;5064992;28;20025;-70
2022/05/06 06:01:34;;;;;;;14.32;7.97;;;;;;;16.76;75.05;99206.03;5064934;28;20021;-70
2022/05/06 06:03:59;;;;;;;12.55;7.68;;;;;;;17.46;73.19;99214.16;5064804;28;20039;-70
2022/05/06 06:06:25;;;;;;;13.10;8.07;;;;;;;17.31;71.44;99209.38;5064819;28;20021;-70
2022/05/06 06:08:50;;;;;;;12.52;7.40;;;;;;;17.47;73.41;99215.91;5064721;28;20318;-70
2022/05/06 06:11:17;;;;;;;12.25;6.93;;;;;;;17.98;68.04;99214.75;5064627;28;20082;-70
2022/05/06 06:13:43;;;;;;;16.83;7.80;;;;;;;18.34;70.60;99215.03;5064582;28;20021;-70
2022/05/06 06:16:08;;;;;;;11.77;6.90;;;;;;;18.67;67.94;99211.88;5064521;28;20033;-70
2022/05/06 06:18:34;;;;;;;14.57;7.45;;;;;;;19.32;67.09;99210.81;5064485;28;20048;-70
2022/05/06 06:20:59;;;;;;;15.07;7.18;;;;;;;19.73;66.82;99212.44;5064424;28;20021;-70
2022/05/06 06:23:25;;;;;;;11.27;7.22;;;;;;;19.57;64.19;99203.41;5064343;28;20084;-70
2022/05/06 06:25:50;;;;;;;12.45;5.82;;;;;;;20.10;59.27;99213.31;5064368;28;20020;-70
2022/05/06 06:28:16;;;;;;;8.80;5.70;;;;;;;20.34;59.07;99205.94;5064324;28;20020;-70
2022/05/06 06:30:42;;;;;;;10.25;5.50;;;;;;;20.44;58.22;99202.69;5064332;28;20096;-70
2022/05/06 06:33:08;;;;;;;13.05;5.93;;;;;;;20.22;56.99;99206.53;5064259;28;20033;-70
2022/05/06 06:35:33;;;;;;;9.52;6.15;;;;;;;20.51;56.21;99205.94;5064235;28;20029;-70
2022/05/06 06:38:00;;;;;;;17.70;5.78;;;;;;;19.90;60.04;99207.19;5064048;28;20021;-70
2022/05/06 06:40:26;;;;;;;13.10;5.85;;;;;;;20.49;56.28;99206.00;5064164;28;20082;-70
2022/05/06 06:42:51;;;;;;;10.82;4.35;;;;;;;20.89;56.26;99211.06;5064121;28;20239;-70
2022/05/06 06:45:17;;;;;;;10.15;5.20;;;;;;;21.06;54.86;99212.91;5064084;28;20016;-70
2022/05/06 06:47:43;;;;;;;8.18;4.82;;;;;;;20.35;54.43;99204.97;5063983;28;20016;-70
2022/05/06 06:50:09;;;;;;;9.00;4.80;;;;;;;20.31;56.65;99204.25;5063818;28;20032;-70
2022/05/06 06:52:35;;;;;;;10.43;5.13;;;;;;;21.10;55.46;99215.34;5063932;28;20021;-70
2022/05/06 06:55:00;;;;;;;8.20;4.50;;;;;;;21.69;52.92;99211.25;5063940;28;20024;-70
2022/05/06 06:57:30;;;;;;;10.85;4.78;;;;;;;21.65;54.55;99218.63;5063819;28;20021;-70
2022/05/06 06:59:55;;;;;;;8.90;4.57;;;;;;;21.90;53.47;99223.50;5063888;28;20273;-70
2022/05/06 07:02:21;;;;;;;6.88;4.47;;;;;;;21.51;51.61;99215.81;5063795;28;20024;-70
2022/05/06 07:04:47;;;;;;;7.43;3.90;;;;;;;22.03;49.98;99217.38;5063671;28;20086;-70
2022/05/06 07:12:54;;;;;;;7.32;3.97;;;;;;;21.90;50.29;99212.78;5063746;28;20067;-70
2022/05/06 07:15:19;;;;;;;7.05;3.70;;;;;;;21.75;50.03;99221.66;5063714;28;20020;-70
2022/05/06 07:17:45;;;;;;;6.25;3.58;;;;;;;22.29;50.33;99226.63;5063591;28;20052;-70
2022/05/06 07:20:11;;;;;;;5.93;3.88;;;;;;;22.30;50.20;99220.31;5063722;28;20029;-70
2022/05/06 07:22:37;;;;;;;5.95;3.42;;;;;;;22.43;50.50;99218.66;5063702;28;20087;-70
2022/05/06 07:25:03;;;;;;;8.52;3.72;;;;;;;22.62;48.99;99220.19;5063607;28;20032;-70
2022/05/06 07:27:29;;;;;;;6.13;3.70;;;;;;;23.01;48.73;99217.81;5063625;28;20221;-70
2022/05/06 07:29:54;;;;;;;5.53;3.03;;;;;;;22.42;48.20;99223.16;5063558;28;20027;-70
2022/05/06 07:32:20;;;;;;;4.38;3.15;;;;;;;22.84;47.02;99217.09;5063551;28;20029;-70
2022/05/06 07:34:45;;;;;;;4.45;3.10;;;;;;;23.13;47.18;99218.94;5063578;28;20032;-70
2022/05/06 07:37:11;;;;;;;6.57;2.70;;;;;;;21.71;46.62;99218.28;5063706;28;20033;-70
2022/05/06 07:39:36;;;;;;;5.90;2.97;;;;;;;21.67;48.22;99218.53;5063544;28;20025;-70
2022/05/06 07:42:02;;;;;;;6.25;2.53;;;;;;;22.30;48.03;99214.97;5063514;28;20039;-70
2022/05/06 07:44:28;;;;;;;8.80;3.20;;;;;;;22.00;47.70;99219.38;5063576;28;20041;-70
2022/05/06 07:46:53;;;;;;;4.10;2.58;;;;;;;22.18;45.58;99213.81;5063422;28;20019;-70
2022/05/06 07:49:19;;;;;;;4.47;2.65;;;;;;;22.42;44.94;99208.88;5063475;28;20045;-70
2022/05/06 07:51:44;;;;;;;4.13;2.75;;;;;;;21.77;47.28;99211.75;5063367;28;20366;-70
2022/05/06 07:54:10;;;;;;;3.58;1.92;;;;;;;20.85;46.99;99204.13;5063435;28;20037;-70
2022/05/06 07:56:35;;;;;;;4.38;2.60;;;;;;;21.07;48.22;99212.81;5063339;28;20024;-70
2022/05/06 07:59:01;;;;;;;3.65;2.10;;;;;;;21.61;48.20;99208.16;5063325;28;20021;-70
2022/05/06 08:06:55;;;;;;;5.50;2.22;;;;;;;23.28;43.98;99209.94;5067009;28;20028;-70
2022/05/06 08:09:21;;;;;;;3.95;2.05;;;;;;;23.88;44.84;99211.50;5066930;28;20025;-70
2022/05/06 08:11:47;;;;;;;4.90;1.70;;;;;;;24.04;42.89;99206.88;5066871;28;20084;-70
2022/05/06 08:14:16;;;;;;;6.22;1.98;;;;;;;24.17;41.71;99210.50;5066890;28;20378;-70
2022/05/06 08:16:45;;;;;;;4.80;2.00;;;;;;;24.06;40.54;99214.84;5066980;28;20300;-70
2022/05/06 08:19:11;;;;;;;4.30;1.90;;;;;;;23.64;43.44;99223.81;5066763;28;20148;-70
2022/05/06 08:21:37;;;;;;;2.92;1.95;;;;;;;23.36;41.33;99213.03;5066780;28;20021;-70
2022/05/06 08:24:03;;;;;;;7.05;2.33;;;;;;;23.15;42.10;99219.69;5066622;28;20027;-70
2022/05/06 08:26:28;;;;;;;2.38;1.48;;;;;;;23.52;39.69;99218.31;5066631;28;20016;-70
2022/05/06 08:28:54;;;;;;;4.15;2.10;;;;;;;22.77;41.73;99210.38;5066552;28;20021;-70
2022/05/06 08:31:20;;;;;;;3.25;1.80;;;;;;;23.06;43.63;99214.88;5066537;28;20071;-70
2022/05/06 08:33:46;;;;;;;3.95;1.92;;;;;;;23.37;41.27;99209.38;5066464;28;20025;-70
2022/05/06 08:36:11;;;;;;;1.65;1.50;;;;;;;23.81;40.21;99223.59;5066456;28;20339;-70
2022/05/06 08:38:37;;;;;;;2.28;1.30;;;;;;;23.39;38.62;99223.59;5066401;28;20071;-70
2022/05/06 08:41:03;;;;;;;5.05;1.90;;;;;;;23.69;42.70;99228.91;5066347;28;20024;-70
2022/05/06 08:43:28;;;;;;;3.47;1.60;;;;;;;23.34;38.94;99214.94;5066329;28;20029;-70
2022/05/06 08:51:33;;;;;;;4.28;1.73;;;;;;;23.40;43.13;99213.69;5066144;28;20024;-70
2022/05/06 08:53:59;;;;;;;5.70;1.98;;;;;;;23.03;40.63;99228.47;5066123;28;20031;-70
2022/05/06 08:56:25;;;;;;;2.22;1.45;;;;;;;23.38;40.35;99213.78;5066025;28;20021;-70
2022/05/06 08:58:51;;;;;;;1.52;1.40;;;;;;;24.24;39.68;99221.75;5066175;28;20040;-70
2022/05/06 09:01:22;;;;;;;4.30;1.77;;;;;;;23.79;38.47;99212.06;5066249;28;20312;-70
2022/05/06 09:03:48;;;;;;;3.42;1.55;;;;;;;24.37;39.98;99220.84;5065740;28;20044;-70
2022/05/06 09:06:32;;;;;;;2.95;1.60;;;;;;;24.59;39.39;99215.78;5065786;28;20025;-70
2022/05/06 09:08:59;;;;;;;3.00;1.50;;;;;;;24.76;37.91;99222.72;5065825;28;20025;-70
2022/05/06 09:16:39;;;;;;;2.83;1.70;;;;;;;24.79;40.61;99209.06;5065663;28;20047;-70
2022/05/06 09:17:20;;;;;;;3.05;1.48;;;;;;;23.92;39.63;99204.94;5065558;28;20049;-70
2022/05/06 09:19:45;;;;;;;2.03;1.50;;;;;;;24.17;37.48;99218.56;5065584;28;20223;-70
2022/05/06 09:22:17;;;;;;;3.28;2.00;;;;;;;24.30;40.28;99218.66;5065537;28;20084;-70
2022/05/06 09:24:52;;;;;;;4.45;2.30;;;;;;;23.63;40.17;99214.00;5065507;28;20028;-70
2022/05/06 09:27:19;;;;;;;3.83;1.70;;;;;;;23.79;41.02;99228.19;5065454;28;20017;-70
2022/05/06 09:29:47;;;;;;;6.97;1.75;;;;;;;23.76;42.60;99217.63;5065478;28;20324;-70
2022/05/06 09:32:29;;;;;;;6.22;2.10;;;;;;;24.31;40.28;99232.00;5065439;28;20040;-70
2022/05/06 09:35:15;;;;;;;6.78;2.50;;;;;;;24.08;40.40;99232.59;5065643;28;20063;-70
2022/05/06 09:37:41;;;;;;;2.80;2.00;;;;;;;24.07;41.01;99219.28;5065260;28;20024;-70
2022/05/06 09:40:15;;;;;;;5.80;2.33;;;;;;;24.47;40.64;99208.50;5065500;28;20021;-70
2022/05/06 09:42:42;;;;;;;4.80;2.00;;;;;;;24.06;40.65;99210.34;5065217;28;20092;-70
2022/05/06 09:45:09;;;;;;;6.65;2.38;;;;;;;23.76;42.50;99206.88;5065133;28;20031;-70
2022/05/06 09:47:35;;;;;;;3.00;1.92;;;;;;;23.70;43.55;99201.94;5065076;28;20220;-70
2022/05/06 09:50:03;;;;;;;3.03;2.20;;;;;;;22.72;43.21;99217.84;5065144;28;20021;-70
2022/05/06 09:52:28;;;;;;;2.78;1.90;;;;;;;22.17;42.13;99219.28;5064954;28;20028;-70
2022/05/06 09:54:56;;;;;;;5.15;2.20;;;;;;;22.08;43.32;99211.78;5064960;28;20028;-70
2022/05/06 09:57:21;;;;;;;4.05;1.83;;;;;;;22.99;41.42;99216.19;5064819;28;20264;-70
2022/05/06 09:59:47;;;;;;;4.32;2.13;;;;;;;23.06;41.89;99210.38;5064845;28;20021;-70
2022/05/06 10:02:14;;;;;;;3.58;2.03;;;;;;;23.40;41.22;99211.88;5064615;28;20265;-70
2022/05/06 10:04:39;;;;;;;8.05;2.47;;;;;;;23.72;41.55;99215.22;5064655;28;20072;-70
2022/05/06 10:07:12;;;;;;;6.05;2.55;;;;;;;23.55;40.69;99205.56;5064770;28;20028;-70
2022/05/06 10:09:58;;;;;;;4.43;2.00;;;;;;;23.53;43.42;99199.41;5064658;28;20028;-70
2022/05/06 10:12:35;;;;;;;2.75;1.75;;;;;;;23.41;42.29;99205.53;5064867;28;20055;-70
2022/05/06 10:15:03;;;;;;;2.75;1.65;;;;;;;23.58;39.55;99197.31;5064861;28;20320;-70
2022/05/06 10:17:54;;;;;;;5.40;1.90;;;;;;;22.85;42.41;99200.06;5064453;28;20066;-70
2022/05/06 10:20:35;;;;;;;5.88;2.15;;;;;;;22.01;42.91;99196.97;5064678;28;20036;-70
2022/05/06 10:23:12;;;;;;;4.65;2.30;;;;;;;22.48;44.27;99206.72;5064753;28;20027;-70
2022/05/06 10:25:40;;;;;;;2.97;2.03;;;;;;;22.90;40.93;99203.31;5063970;28;20024;-70
2022/05/06 10:34:22;;;;;;;5.65;1.92;;;;;;;22.74;41.63;99197.13;5064241;28;20031;-70
2022/05/06 10:36:53;;;;;;;5.40;1.70;;;;;;;22.96;44.07;99193.09;5064162;28;20088;-70
2022/05/06 10:39:23;;;;;;;4.30;2.08;;;;;;;23.39;41.65;99196.72;5064186;28;20029;-70
2022/05/06 10:42:01;;;;;;;3.88;1.85;;;;;;;23.34;39.28;99204.19;5064208;28;20024;-70
2022/05/06 10:44:41;;;;;;;3.17;1.85;;;;;;;23.47;39.30;99198.94;5064046;28;20048;-70
2022/05/06 10:47:12;;;;;;;6.65;2.05;;;;;;;22.84;41.32;99188.47;5045752;28;20084;-70
2022/05/06 10:49:38;;;;;;;4.53;1.70;;;;;;;22.80;40.79;99199.47;5060166;28;20046;-70
2022/05/06 10:52:15;;;;;;;5.00;1.80;;;;;;;23.04;42.18;99200.69;5063513;28;20029;-70
2022/05/06 10:54:47;;;;;;;5.88;1.70;;;;;;;23.33;41.88;99191.75;5052334;28;20043;-70
2022/05/06 10:57:13;;;;;;;;;;;;;;;23.65;39.64;99187.91;5059342;28;20031;-70
2022/05/06 10:59:58;;;;;;;13.20;1.60;;;;;;;23.95;41.24;99183.25;5053419;28;19909;-70
2022/05/06 11:02:27;;;;;;;3.30;1.80;;;;;;;23.22;37.76;99184.31;5043671;28;20026;-70
2022/05/06 11:05:05;;;;;;;4.00;1.55;;;;;;;22.92;41.64;99179.94;5043909;28;20025;-70
2022/05/06 11:07:33;;;;;;;6.43;1.48;;;;;;;22.36;39.76;99179.72;5060822;28;20084;-70
2022/05/06 11:09:58;;;;;;;5.22;1.60;;;;;;;22.61;41.27;99175.56;5050865;28;20055;-70
2022/05/06 11:12:47;;;;;;;2.50;1.42;;;;;;;23.36;41.35;99183.50;5043898;28;20241;-70
2022/05/06 11:15:16;;;;;;;3.60;1.80;;;;;;;22.62;39.97;99181.78;5055993;28;20028;-70
2022/05/06 11:17:46;;;;;;;5.15;1.80;;;;;;;22.32;42.48;99179.03;5063078;28;20048;-70
2022/05/06 11:20:26;;;;;;;2.03;1.52;;;;;;;21.76;42.17;99193.94;5059591;28;20021;-70
2022/05/06 11:23:09;;;;;;;3.92;1.73;;;;;;;21.13;43.68;99183.06;5043837;28;20329;-70
2022/05/06 11:25:46;;;;;;;2.47;1.80;;;;;;;21.69;42.40;99189.81;5044158;28;20021;-70
2022/05/06 11:28:14;;;;;;;3.42;1.48;;;;;;;21.51;42.43;99180.13;5062385;28;20017;-70
2022/05/06 11:30:45;;;;;;;2.00;1.30;;;;;;;21.40;44.11;99179.84;5054696;28;20036;-70
2022/05/06 11:33:26;;;;;;;5.87;1.53;;;;;;;21.57;41.79;99177.97;5042908;28;20052;-70
2022/05/06 11:36:01;;;;;;;3.00;1.60;;;;;;;21.86;46.31;99179.06;5043162;28;20281;-70
2022/05/06 11:38:39;;;;;;;2.00;1.23;;;;;;;21.37;42.21;99174.66;5047274;28;20029;-70
2022/05/06 11:41:15;;;;;;;3.95;1.65;;;;;;;21.58;42.00;99173.47;5049909;28;20025;-70
2022/05/06 11:43:42;;;;;;;5.45;2.00;;;;;;;21.23;42.45;99167.38;5047560;28;20025;-70
2022/05/06 11:48:59;;;;;;;3.90;1.42;;;;;;;21.36;43.29;99155.06;5050059;28;20024;-70
2022/05/06 11:51:30;;;;;;;4.35;2.28;;;;;;;21.48;45.16;99154.34;5063962;28;20029;-70
2022/05/06 11:53:57;;;;;;;;;;;;;;;21.64;43.83;99151.72;5058029;28;20036;-70
2022/05/06 11:56:25;;;;;;;3.47;1.50;;;;;;;21.41;47.07;99149.44;5047214;28;19904;-70
2022/05/06 11:58:53;;;;;;;3.50;1.33;;;;;;;21.07;44.00;99140.53;5047143;28;20221;-70
2022/05/06 12:01:29;;;;;;;2.33;1.60;;;;;;;20.82;45.10;99150.78;5047200;28;20022;-70
2022/05/06 12:04:06;;;;;;;3.35;1.50;;;;;;;20.77;43.51;99158.19;5046997;28;20047;-70
2022/05/06 12:06:32;;;;;;;3.33;1.52;;;;;;;20.78;45.56;99143.88;5047146;28;20028;-70
2022/05/06 12:09:16;;;;;;;7.22;1.95;;;;;;;20.66;44.40;99147.16;5047035;28;20093;-70
2022/05/06 12:11:43;;;;;;;5.88;1.88;;;;;;;20.67;44.45;99138.22;5047252;28;20269;-70